createdAt,value
2017-11-04T00:00:17.721Z,88.3
2017-11-04T00:01:19.118Z,87.8
2017-11-04T00:02:20.507Z,88.1
2017-11-04T00:03:21.897Z,88.1
2017-11-04T00:04:23.303Z,88.2
2017-11-04T00:05:24.784Z,88.7
2017-11-04T00:06:26.177Z,88.2
2017-11-04T00:07:27.572Z,88.3
2017-11-04T00:08:28.966Z,88.5
2017-11-04T00:09:30.353Z,88.4
2017-11-04T00:10:31.775Z,89.1
2017-11-04T00:11:33.165Z,88.4
2017-11-04T00:12:34.555Z,88.7
2017-11-04T00:13:35.950Z,88.9
2017-11-04T00:14:37.342Z,89.0
2017-11-04T00:15:38.745Z,89.2
2017-11-04T00:16:40.134Z,89.8
2017-11-04T00:17:41.526Z,89.8
2017-11-04T00:18:42.915Z,89.5
2017-11-04T00:19:44.306Z,89.7
2017-11-04T00:20:45.700Z,89.8
2017-11-04T00:21:47.092Z,89.8
2017-11-04T00:22:48.487Z,90.3
2017-11-04T00:23:49.875Z,90.1
2017-11-04T00:24:51.266Z,90.3
2017-11-04T00:25:52.661Z,90.0
2017-11-04T00:26:54.059Z,89.4
2017-11-04T00:27:55.456Z,90.0
2017-11-04T00:28:56.841Z,89.8
2017-11-04T00:29:58.238Z,89.4
2017-11-04T00:30:59.634Z,89.9
2017-11-04T00:32:01.024Z,89.8
2017-11-04T00:33:02.414Z,90.1
2017-11-04T00:34:03.811Z,90.2
2017-11-04T00:35:05.203Z,90.2
2017-11-04T00:36:06.595Z,90.3
2017-11-04T00:37:07.990Z,90.2
2017-11-04T00:38:09.374Z,90.2
2017-11-04T00:39:10.772Z,90.3
2017-11-04T00:40:12.257Z,90.2
2017-11-04T00:41:13.647Z,90.1
2017-11-04T00:42:15.039Z,89.5
2017-11-04T00:43:16.431Z,89.8
2017-11-04T00:44:17.828Z,89.7
2017-11-04T00:45:19.215Z,89.2
2017-11-04T00:46:20.623Z,89.2
2017-11-04T00:47:22.010Z,89.2
2017-11-04T00:48:23.401Z,89.3
2017-11-04T00:49:24.792Z,89.2
2017-11-04T00:50:26.185Z,89.8
2017-11-04T00:51:27.576Z,89.5
2017-11-04T00:52:28.968Z,89.0
2017-11-04T00:53:30.361Z,89.3
2017-11-04T00:54:31.752Z,89.4
2017-11-04T00:55:33.144Z,88.9
2017-11-04T00:56:34.538Z,89.6
2017-11-04T00:57:35.933Z,89.5
2017-11-04T00:58:37.325Z,89.5
2017-11-04T00:59:38.727Z,89.3
2017-11-04T01:00:40.115Z,89.6
2017-11-04T01:01:41.516Z,89.3
2017-11-04T01:02:42.965Z,89.2
2017-11-04T01:03:44.360Z,89.4
2017-11-04T01:04:45.753Z,89.6
2017-11-04T01:05:47.147Z,89.6
2017-11-04T01:06:48.538Z,89.5
2017-11-04T01:07:49.928Z,89.3
2017-11-04T01:08:51.320Z,89.3
2017-11-04T01:09:52.715Z,89.4
2017-11-04T01:10:54.101Z,89.3
2017-11-04T01:11:55.496Z,89.1
2017-11-04T01:12:56.887Z,89.7
2017-11-04T01:13:58.278Z,89.9
2017-11-04T01:14:59.684Z,89.6
2017-11-04T01:16:01.065Z,90.0
2017-11-04T01:17:02.452Z,90.3
2017-11-04T01:18:03.847Z,90.3
2017-11-04T01:19:05.237Z,90.4
2017-11-04T01:20:06.632Z,90.2
2017-11-04T01:21:08.021Z,90.3
2017-11-04T01:22:09.411Z,90.4
2017-11-04T01:23:10.824Z,90.2
2017-11-04T01:24:12.194Z,90.4
2017-11-04T01:25:13.585Z,90.4
2017-11-04T01:26:14.980Z,90.5
2017-11-04T01:27:16.376Z,90.5
2017-11-04T01:28:17.765Z,90.3
2017-11-04T01:29:19.156Z,90.1
2017-11-04T01:30:20.548Z,90.6
2017-11-04T01:31:21.944Z,90.1
2017-11-04T01:32:23.331Z,90.6
2017-11-04T01:33:24.720Z,90.9
2017-11-04T01:34:26.116Z,90.5
2017-11-04T01:35:27.507Z,90.5
2017-11-04T01:36:28.900Z,90.6
2017-11-04T01:37:30.289Z,90.9
2017-11-04T01:38:31.682Z,90.6
2017-11-04T01:39:33.077Z,90.5
2017-11-04T01:40:34.469Z,90.3
2017-11-04T01:41:35.861Z,90.7
2017-11-04T01:42:37.251Z,90.5
2017-11-04T01:43:38.643Z,90.6
2017-11-04T01:44:40.036Z,90.5
2017-11-04T01:45:41.432Z,90.2
2017-11-04T01:46:42.820Z,90.3
2017-11-04T01:47:44.214Z,90.6
2017-11-04T01:48:45.610Z,90.3
2017-11-04T01:49:46.999Z,90.7
2017-11-04T01:50:48.391Z,90.2
2017-11-04T01:51:49.785Z,90.4
2017-11-04T01:52:51.176Z,90.4
2017-11-04T01:53:52.576Z,90.9
2017-11-04T01:54:53.975Z,90.6
2017-11-04T01:55:55.368Z,90.5
2017-11-04T01:56:56.757Z,90.5
2017-11-04T01:57:58.151Z,90.6
2017-11-04T01:58:59.540Z,90.3
2017-11-04T02:00:00.939Z,90.4
2017-11-04T02:01:02.331Z,90.6
2017-11-04T02:02:03.722Z,90.9
2017-11-04T02:03:05.116Z,90.4
2017-11-04T02:04:06.506Z,90.5
2017-11-04T02:05:07.912Z,90.4
2017-11-04T02:06:09.293Z,90.5
2017-11-04T02:07:10.688Z,90.7
2017-11-04T02:08:12.087Z,90.9
2017-11-04T02:09:13.479Z,90.4
2017-11-04T02:10:14.873Z,90.3
2017-11-04T02:11:16.262Z,90.5
2017-11-04T02:12:17.655Z,90.9
2017-11-04T02:13:19.045Z,90.9
2017-11-04T02:14:20.436Z,91.1
2017-11-04T02:15:21.836Z,90.9
2017-11-04T02:16:23.231Z,91.3
2017-11-04T02:17:24.625Z,91.0
2017-11-04T02:18:26.013Z,91.0
2017-11-04T02:19:27.408Z,91.1
2017-11-04T02:20:28.799Z,90.9
2017-11-04T02:21:30.193Z,91.0
2017-11-04T02:22:31.583Z,90.9
2017-11-04T02:23:32.976Z,91.3
2017-11-04T02:24:34.371Z,91.0
2017-11-04T02:25:35.765Z,90.9
2017-11-04T02:26:37.151Z,90.9
2017-11-04T02:27:38.542Z,90.9
2017-11-04T02:28:39.935Z,91.0
2017-11-04T02:29:41.328Z,91.1
2017-11-04T02:30:42.722Z,91.1
2017-11-04T02:31:44.115Z,90.9
2017-11-04T02:32:45.504Z,90.9
2017-11-04T02:33:46.903Z,91.3
2017-11-04T02:34:48.295Z,90.9
2017-11-04T02:35:49.685Z,91.2
2017-11-04T02:36:51.074Z,91.0
2017-11-04T02:37:52.466Z,90.7
2017-11-04T02:38:53.858Z,90.5
2017-11-04T02:39:55.248Z,90.3
2017-11-04T02:40:56.644Z,90.5
2017-11-04T02:41:58.039Z,90.5
2017-11-04T02:42:59.430Z,90.9
2017-11-04T02:44:00.820Z,90.5
2017-11-04T02:45:02.214Z,90.6
2017-11-04T02:46:03.665Z,90.4
2017-11-04T02:47:05.075Z,90.5
2017-11-04T02:48:06.471Z,90.0
2017-11-04T02:49:07.863Z,90.3
2017-11-04T02:50:09.253Z,89.9
2017-11-04T02:51:10.646Z,90.2
2017-11-04T02:52:12.038Z,90.2
2017-11-04T02:53:13.449Z,90.5
2017-11-04T02:54:14.828Z,90.5
2017-11-04T02:55:16.221Z,90.1
2017-11-04T02:56:17.617Z,90.4
2017-11-04T02:57:19.001Z,90.4
2017-11-04T02:58:20.390Z,90.0
2017-11-04T02:59:21.786Z,90.2
2017-11-04T03:00:23.184Z,90.3
2017-11-04T03:01:24.568Z,90.4
2017-11-04T03:02:25.963Z,90.5
2017-11-04T03:03:27.355Z,90.8
2017-11-04T03:04:28.747Z,90.5
2017-11-04T03:05:30.147Z,90.4
2017-11-04T03:06:31.533Z,90.6
2017-11-04T03:07:32.927Z,90.1
2017-11-04T03:08:34.319Z,90.2
2017-11-04T03:09:35.710Z,89.9
2017-11-04T03:10:37.099Z,90.0
2017-11-04T03:11:38.489Z,90.5
2017-11-04T03:12:39.882Z,90.5
2017-11-04T03:13:41.277Z,90.5
2017-11-04T03:14:42.667Z,90.4
2017-11-04T03:15:44.065Z,90.5
2017-11-04T03:16:45.455Z,90.6
2017-11-04T03:17:46.842Z,90.4
2017-11-04T03:18:48.234Z,90.3
2017-11-04T03:19:49.626Z,90.9
2017-11-04T03:20:51.017Z,90.9
2017-11-04T03:21:52.412Z,90.7
2017-11-04T03:22:53.802Z,90.2
2017-11-04T03:23:55.191Z,90.4
2017-11-04T03:24:56.599Z,90.1
2017-11-04T03:25:57.978Z,90.3
2017-11-04T03:26:59.372Z,90.1
2017-11-04T03:28:00.766Z,90.6
2017-11-04T03:29:02.159Z,90.5
2017-11-04T03:30:03.560Z,90.3
2017-11-04T03:31:04.943Z,90.7
2017-11-04T03:32:06.334Z,90.6
2017-11-04T03:33:07.726Z,90.4
2017-11-04T03:34:09.118Z,90.9
2017-11-04T03:35:10.515Z,90.4
2017-11-04T03:36:11.902Z,90.3
2017-11-04T03:37:13.289Z,90.7
2017-11-04T03:38:14.700Z,90.7
2017-11-04T03:39:16.092Z,90.8
2017-11-04T03:40:17.479Z,90.9
2017-11-04T03:41:18.875Z,91.0
2017-11-04T03:42:20.267Z,90.9
2017-11-04T03:43:21.660Z,91.0
2017-11-04T03:44:23.058Z,90.9
2017-11-04T03:45:24.445Z,91.1
2017-11-04T03:46:25.837Z,90.9
2017-11-04T03:47:27.235Z,90.5
2017-11-04T03:48:28.629Z,90.5
2017-11-04T03:49:30.022Z,90.3
2017-11-04T03:50:31.416Z,90.3
2017-11-04T03:51:32.804Z,90.9
2017-11-04T03:52:34.199Z,90.3
2017-11-04T03:53:35.586Z,90.4
2017-11-04T03:54:36.979Z,90.6
2017-11-04T03:55:38.373Z,90.6
2017-11-04T03:56:39.767Z,90.4
2017-11-04T03:57:41.160Z,90.4
2017-11-04T03:58:42.552Z,90.1
2017-11-04T03:59:43.944Z,90.5
2017-11-04T04:00:45.338Z,90.8
2017-11-04T04:01:46.727Z,90.5
2017-11-04T04:02:48.121Z,90.4
2017-11-04T04:03:49.518Z,90.5
2017-11-04T04:04:50.909Z,90.1
2017-11-04T04:05:52.300Z,90.5
2017-11-04T04:06:53.698Z,90.4
2017-11-04T04:07:55.082Z,90.4
2017-11-04T04:08:56.473Z,90.9
2017-11-04T04:09:57.864Z,91.3
2017-11-04T04:10:59.258Z,91.3
2017-11-04T04:12:00.655Z,91.0
2017-11-04T04:13:02.041Z,91.2
2017-11-04T04:14:03.431Z,90.9
2017-11-04T04:15:04.826Z,91.7
2017-11-04T04:16:06.248Z,91.5
2017-11-04T04:17:07.609Z,91.6
2017-11-04T04:18:09.000Z,91.7
2017-11-04T04:19:10.394Z,91.5
2017-11-04T04:20:11.784Z,91.3
2017-11-04T04:21:13.172Z,91.5
2017-11-04T04:22:14.571Z,91.7
2017-11-04T04:23:15.962Z,91.3
2017-11-04T04:24:17.353Z,91.7
2017-11-04T04:25:18.747Z,91.5
2017-11-04T04:26:20.140Z,91.9
2017-11-04T04:27:21.534Z,92.0
2017-11-04T04:28:22.920Z,92.0
2017-11-04T04:29:24.359Z,91.7
2017-11-04T04:30:25.709Z,91.4
2017-11-04T04:31:27.100Z,91.5
2017-11-04T04:32:28.493Z,91.8
2017-11-04T04:33:29.882Z,91.6
2017-11-04T04:34:31.271Z,91.6
2017-11-04T04:35:32.665Z,91.3
2017-11-04T04:36:34.056Z,91.0
2017-11-04T04:37:35.449Z,91.4
2017-11-04T04:38:36.838Z,91.5
2017-11-04T04:39:38.233Z,91.1
2017-11-04T04:40:39.628Z,91.1
2017-11-04T04:41:41.018Z,91.0
2017-11-04T04:42:42.408Z,91.1
2017-11-04T04:43:43.799Z,90.9
2017-11-04T04:44:45.190Z,91.1
2017-11-04T04:45:46.584Z,91.3
2017-11-04T04:46:47.974Z,90.9
2017-11-04T04:47:49.366Z,91.1
2017-11-04T04:48:50.756Z,91.1
2017-11-04T04:49:52.147Z,91.3
2017-11-04T04:50:53.539Z,91.1
2017-11-04T04:51:54.930Z,91.1
2017-11-04T04:52:56.319Z,91.4
2017-11-04T04:53:57.712Z,91.1
2017-11-04T04:54:59.106Z,91.0
2017-11-04T04:56:00.503Z,91.4
2017-11-04T04:57:01.888Z,91.1
2017-11-04T04:58:03.279Z,91.4
2017-11-04T04:59:04.673Z,91.0
2017-11-04T05:00:06.064Z,91.2
2017-11-04T05:01:07.457Z,91.2
2017-11-04T05:02:08.849Z,91.7
2017-11-04T05:03:10.251Z,91.7
2017-11-04T05:04:11.643Z,91.2
2017-11-04T05:05:13.034Z,91.1
2017-11-04T05:06:14.426Z,90.9
2017-11-04T05:07:15.821Z,90.8
2017-11-04T05:08:17.211Z,90.9
2017-11-04T05:09:18.609Z,91.2
2017-11-04T05:10:19.997Z,91.2
2017-11-04T05:11:21.386Z,91.7
2017-11-04T05:12:22.778Z,91.4
2017-11-04T05:13:24.171Z,91.6
2017-11-04T05:14:25.561Z,90.9
2017-11-04T05:15:26.955Z,91.1
2017-11-04T05:16:28.349Z,91.1
2017-11-04T05:17:29.737Z,91.0
2017-11-04T05:18:31.127Z,91.5
2017-11-04T05:19:32.517Z,91.9
2017-11-04T05:20:33.907Z,91.7
2017-11-04T05:21:35.301Z,91.8
2017-11-04T05:22:36.699Z,91.3
2017-11-04T05:23:38.092Z,91.2
2017-11-04T05:24:39.486Z,91.3
2017-11-04T05:25:40.874Z,91.5
2017-11-04T05:26:42.266Z,91.4
2017-11-04T05:27:43.664Z,91.8
2017-11-04T05:28:45.049Z,91.7
2017-11-04T05:29:46.444Z,91.7
2017-11-04T05:30:47.839Z,91.7
2017-11-04T05:31:49.229Z,91.7
2017-11-04T05:32:50.621Z,91.6
2017-11-04T05:33:52.009Z,91.6
2017-11-04T05:34:53.405Z,91.6
2017-11-04T05:35:54.794Z,91.6
2017-11-04T05:36:56.192Z,91.5
2017-11-04T05:37:57.584Z,91.6
2017-11-04T05:38:58.974Z,91.5
2017-11-04T05:40:00.363Z,91.6
2017-11-04T05:41:01.757Z,91.7
2017-11-04T05:42:03.160Z,91.8
2017-11-04T05:43:04.556Z,91.5
2017-11-04T05:44:05.946Z,91.6
2017-11-04T05:45:07.338Z,91.7
2017-11-04T05:46:08.729Z,91.8
2017-11-04T05:47:10.126Z,91.5
2017-11-04T05:48:11.510Z,91.7
2017-11-04T05:49:12.903Z,91.7
2017-11-04T05:50:14.297Z,92.0
2017-11-04T05:51:15.688Z,92.1
2017-11-04T05:52:17.081Z,92.2
2017-11-04T05:53:18.479Z,92.0
2017-11-04T05:54:19.871Z,92.3
2017-11-04T05:55:21.264Z,92.1
2017-11-04T05:56:22.653Z,92.2
2017-11-04T05:57:24.046Z,92.2
2017-11-04T05:58:25.441Z,92.3
2017-11-04T05:59:26.842Z,91.7
2017-11-04T06:00:28.224Z,91.7
2017-11-04T06:01:29.616Z,92.0
2017-11-04T06:02:31.012Z,92.0
2017-11-04T06:03:32.408Z,92.1
2017-11-04T06:04:33.797Z,92.1
2017-11-04T06:05:35.190Z,92.2
2017-11-04T06:06:36.582Z,92.1
2017-11-04T06:07:37.975Z,92.1
2017-11-04T06:08:39.366Z,92.2
2017-11-04T06:09:40.762Z,92.2
2017-11-04T06:10:42.154Z,92.1
2017-11-04T06:11:43.553Z,92.3
2017-11-04T06:12:44.944Z,92.4
2017-11-04T06:13:46.335Z,92.4
2017-11-04T06:14:47.728Z,92.4
2017-11-04T06:15:49.118Z,92.0
2017-11-04T06:16:50.511Z,92.1
2017-11-04T06:17:51.904Z,92.1
2017-11-04T06:18:53.299Z,92.0
2017-11-04T06:19:54.693Z,92.1
2017-11-04T06:20:56.088Z,92.4
2017-11-04T06:21:57.486Z,92.5
2017-11-04T06:22:58.870Z,93.2
2017-11-04T06:24:00.260Z,93.1
2017-11-04T06:25:01.651Z,93.1
2017-11-04T06:26:03.053Z,93.0
2017-11-04T06:27:04.444Z,93.2
2017-11-04T06:28:05.839Z,92.7
2017-11-04T06:29:07.241Z,92.6
2017-11-04T06:30:08.626Z,93.2
2017-11-04T06:31:10.018Z,92.8
2017-11-04T06:32:11.412Z,92.8
2017-11-04T06:33:12.802Z,92.7
2017-11-04T06:34:14.204Z,93.4
2017-11-04T06:35:15.597Z,93.4
2017-11-04T06:36:16.987Z,93.0
2017-11-04T06:37:18.378Z,92.7
2017-11-04T06:38:19.771Z,93.4
2017-11-04T06:39:21.166Z,92.8
2017-11-04T06:40:22.558Z,92.8
2017-11-04T06:41:23.953Z,92.9
2017-11-04T06:42:25.349Z,93.0
2017-11-04T06:43:26.741Z,93.1
2017-11-04T06:44:28.134Z,93.1
2017-11-04T06:45:29.528Z,93.3
2017-11-04T06:46:30.919Z,93.3
2017-11-04T06:47:32.312Z,93.2
2017-11-04T06:48:33.707Z,93.2
2017-11-04T06:49:35.103Z,93.0
2017-11-04T06:50:36.495Z,93.0
2017-11-04T06:51:37.892Z,93.2
2017-11-04T06:52:39.285Z,92.6
2017-11-04T06:53:40.681Z,93.0
2017-11-04T06:54:42.081Z,92.9
2017-11-04T06:55:43.469Z,93.5
2017-11-04T06:56:44.866Z,93.6
2017-11-04T06:57:46.258Z,93.2
2017-11-04T06:58:47.654Z,93.0
2017-11-04T06:59:49.050Z,93.1
2017-11-04T07:00:50.444Z,93.0
2017-11-04T07:01:51.843Z,93.2
2017-11-04T07:02:53.239Z,92.7
2017-11-04T07:03:54.635Z,93.4
2017-11-04T07:04:56.035Z,93.4
2017-11-04T07:05:57.468Z,93.2
2017-11-04T07:06:58.862Z,93.3
2017-11-04T07:08:00.258Z,93.2
2017-11-04T07:09:01.654Z,93.3
2017-11-04T07:10:03.049Z,93.3
2017-11-04T07:11:04.448Z,93.2
2017-11-04T07:12:05.844Z,93.2
2017-11-04T07:13:07.232Z,93.2
2017-11-04T07:14:08.628Z,93.4
2017-11-04T07:15:10.020Z,94.4
2017-11-04T07:16:11.416Z,93.3
2017-11-04T07:17:12.819Z,93.1
2017-11-04T07:18:14.209Z,93.5
2017-11-04T07:19:15.605Z,93.4
2017-11-04T07:20:16.999Z,93.1
2017-11-04T07:21:18.402Z,93.2
2017-11-04T07:22:19.797Z,93.8
2017-11-04T07:23:21.192Z,92.6
2017-11-04T07:24:22.590Z,93.5
2017-11-04T07:25:23.987Z,93.3
2017-11-04T07:26:25.380Z,93.2
2017-11-04T07:27:26.773Z,92.8
2017-11-04T07:28:28.168Z,92.6
2017-11-04T07:29:29.564Z,93.0
2017-11-04T07:30:30.961Z,93.5
2017-11-04T07:31:32.356Z,92.7
2017-11-04T07:32:33.751Z,93.1
2017-11-04T07:33:35.149Z,92.8
2017-11-04T07:34:36.551Z,93.1
2017-11-04T07:35:37.947Z,92.8
2017-11-04T07:36:39.349Z,92.9
2017-11-04T07:37:40.747Z,92.8
2017-11-04T07:38:42.144Z,93.3
2017-11-04T07:39:43.543Z,93.5
2017-11-04T07:40:44.936Z,92.9
2017-11-04T07:41:46.331Z,93.0
2017-11-04T07:42:47.732Z,92.8
2017-11-04T07:43:49.126Z,93.5
2017-11-04T07:44:50.525Z,93.0
2017-11-04T07:45:51.919Z,93.0
2017-11-04T07:46:53.315Z,93.0
2017-11-04T07:47:54.715Z,93.3
2017-11-04T07:48:56.108Z,93.2
2017-11-04T07:49:57.508Z,93.2
2017-11-04T07:50:58.904Z,93.0
2017-11-04T07:52:00.300Z,93.3
2017-11-04T07:53:01.696Z,93.0
2017-11-04T07:54:03.098Z,93.0
2017-11-04T07:55:04.492Z,93.0
2017-11-04T07:56:05.887Z,93.3
2017-11-04T07:57:07.284Z,92.8
2017-11-04T07:58:08.699Z,93.0
2017-11-04T07:59:10.097Z,93.4
2017-11-04T08:00:11.494Z,93.2
2017-11-04T08:01:12.895Z,93.0
2017-11-04T08:02:14.308Z,93.1
2017-11-04T08:03:15.695Z,93.5
2017-11-04T08:04:17.095Z,93.7
2017-11-04T08:05:18.497Z,93.2
2017-11-04T08:06:19.889Z,93.4
2017-11-04T08:07:21.286Z,93.3
2017-11-04T08:08:22.688Z,93.0
2017-11-04T08:09:24.083Z,93.6
2017-11-04T08:10:25.482Z,93.7
2017-11-04T08:11:26.883Z,93.5
2017-11-04T08:12:28.282Z,93.2
2017-11-04T08:13:29.681Z,93.7
2017-11-04T08:14:31.079Z,92.7
2017-11-04T08:15:32.476Z,93.0
2017-11-04T08:16:33.876Z,93.6
2017-11-04T08:17:35.276Z,92.7
2017-11-04T08:18:36.676Z,93.1
2017-11-04T08:19:38.076Z,92.8
2017-11-04T08:20:39.561Z,93.4
2017-11-04T08:21:40.964Z,93.3
2017-11-04T08:22:42.365Z,92.9
2017-11-04T08:23:43.761Z,92.5
2017-11-04T08:24:45.164Z,92.4
2017-11-04T08:25:46.566Z,92.3
2017-11-04T08:26:47.960Z,92.4
2017-11-04T08:27:49.376Z,92.5
2017-11-04T08:28:50.776Z,92.4
2017-11-04T08:29:52.173Z,92.2
2017-11-04T08:30:53.569Z,91.7
2017-11-04T08:31:54.973Z,91.9
2017-11-04T08:32:56.363Z,91.7
2017-11-04T08:33:57.761Z,91.3
2017-11-04T08:34:59.231Z,91.2
2017-11-04T08:36:00.630Z,91.2
2017-11-04T08:37:02.029Z,91.6
2017-11-04T08:38:03.426Z,91.2
2017-11-04T08:39:04.825Z,90.8
2017-11-04T08:40:06.223Z,90.6
2017-11-04T08:41:07.624Z,90.6
2017-11-04T08:42:09.021Z,90.4
2017-11-04T08:43:10.420Z,90.3
2017-11-04T08:44:11.826Z,90.0
2017-11-04T08:45:13.227Z,89.7
2017-11-04T08:46:14.628Z,89.5
2017-11-04T08:47:16.023Z,89.5
2017-11-04T08:48:17.421Z,89.6
2017-11-04T08:49:18.827Z,89.7
2017-11-04T08:50:20.238Z,89.3
2017-11-04T08:51:21.630Z,89.5
2017-11-04T08:52:23.037Z,89.4
2017-11-04T08:53:24.455Z,88.9
2017-11-04T08:54:25.835Z,88.5
2017-11-04T08:55:27.237Z,88.9
2017-11-04T08:56:28.633Z,89.0
2017-11-04T08:57:30.046Z,88.5
2017-11-04T08:58:31.529Z,88.7
2017-11-04T08:59:32.927Z,89.3
2017-11-04T09:00:34.328Z,88.8
2017-11-04T09:01:35.724Z,89.2
2017-11-04T09:02:37.804Z,88.8
2017-11-04T09:03:39.185Z,88.6
2017-11-04T09:04:40.589Z,88.5
2017-11-04T09:05:42.083Z,88.6
2017-11-04T09:06:43.482Z,88.6
2017-11-04T09:07:44.881Z,88.7
2017-11-04T09:08:46.344Z,88.1
2017-11-04T09:09:47.765Z,88.3
2017-11-04T09:10:49.271Z,87.9
2017-11-04T09:11:50.725Z,87.7
2017-11-04T09:12:52.146Z,86.8
2017-11-04T09:13:53.551Z,87.4
2017-11-04T09:14:54.945Z,86.6
2017-11-04T09:15:56.348Z,86.6
2017-11-04T09:16:57.749Z,85.9
2017-11-04T09:17:59.342Z,86.3
2017-11-04T09:19:00.773Z,85.5
2017-11-04T09:20:02.246Z,85.2
2017-11-04T09:21:03.645Z,85.5
2017-11-04T09:22:05.043Z,85.2
2017-11-04T09:23:06.454Z,85.4
2017-11-04T09:24:07.865Z,84.6
2017-11-04T09:25:09.269Z,84.6
2017-11-04T09:26:10.681Z,84.7
2017-11-04T09:27:12.115Z,84.4
2017-11-04T09:28:13.526Z,84.1
2017-11-04T09:29:14.929Z,84.3
2017-11-04T09:30:16.334Z,84.0
2017-11-04T09:31:17.731Z,83.7
2017-11-04T09:32:19.137Z,83.7
2017-11-04T09:33:20.536Z,83.0
2017-11-04T09:34:22.016Z,82.6
2017-11-04T09:35:23.417Z,81.5
2017-11-04T09:36:24.871Z,81.9
2017-11-04T09:37:26.321Z,82.0
2017-11-04T09:38:27.723Z,81.7
2017-11-04T09:39:29.129Z,81.7
2017-11-04T09:40:30.533Z,82.0
2017-11-04T09:41:31.935Z,81.3
2017-11-04T09:42:33.337Z,80.3
2017-11-04T09:43:34.742Z,80.1
2017-11-04T09:44:36.141Z,79.5
2017-11-04T09:45:37.552Z,79.0
2017-11-04T09:46:38.959Z,79.5
2017-11-04T09:47:40.362Z,79.2
2017-11-04T09:48:41.767Z,78.8
2017-11-04T09:49:43.261Z,78.8
2017-11-04T09:50:44.664Z,78.3
2017-11-04T09:51:46.177Z,77.9
2017-11-04T09:52:47.580Z,77.7
2017-11-04T09:53:48.988Z,76.9
2017-11-04T09:54:50.394Z,76.6
2017-11-04T09:55:51.801Z,76.4
2017-11-04T09:56:53.206Z,76.0
2017-11-04T09:57:54.610Z,76.4
2017-11-04T09:58:56.013Z,75.7
2017-11-04T09:59:57.417Z,74.5
2017-11-04T10:00:58.820Z,74.1
2017-11-04T10:02:00.226Z,73.6
2017-11-04T10:03:01.688Z,73.1
2017-11-04T10:04:03.104Z,72.9
2017-11-04T10:05:04.513Z,72.9
2017-11-04T10:06:05.959Z,73.5
2017-11-04T10:07:07.439Z,72.8
2017-11-04T10:08:08.839Z,73.1
2017-11-04T10:09:10.249Z,72.9
2017-11-04T10:10:11.654Z,73.0
2017-11-04T10:11:13.057Z,73.1
2017-11-04T10:12:14.461Z,74.1
2017-11-04T10:13:15.865Z,73.1
2017-11-04T10:14:17.267Z,73.1
2017-11-04T10:15:18.673Z,73.6
2017-11-04T10:16:20.076Z,73.6
2017-11-04T10:17:21.478Z,74.3
2017-11-04T10:18:22.881Z,74.1
2017-11-04T10:19:24.371Z,73.8
2017-11-04T10:20:25.776Z,73.7
2017-11-04T10:21:27.178Z,74.3
2017-11-04T10:22:28.584Z,74.4
2017-11-04T10:23:29.988Z,74.6
2017-11-04T10:24:31.395Z,74.4
2017-11-04T10:25:32.806Z,73.6
2017-11-04T10:26:34.203Z,73.6
2017-11-04T10:27:35.609Z,73.2
2017-11-04T10:28:37.013Z,72.1
2017-11-04T10:29:38.415Z,70.1
2017-11-04T10:30:39.820Z,69.4
2017-11-04T10:31:41.224Z,69.1
2017-11-04T10:32:42.718Z,69.2
2017-11-04T10:33:44.120Z,69.7
2017-11-04T10:34:45.526Z,69.9
2017-11-04T10:35:46.927Z,69.5
2017-11-04T10:36:48.343Z,69.5
2017-11-04T10:37:49.747Z,69.0
2017-11-04T10:38:51.154Z,68.8
2017-11-04T10:39:52.556Z,67.9
2017-11-04T10:40:53.965Z,68.4
2017-11-04T10:41:55.374Z,68.9
2017-11-04T10:42:56.777Z,68.9
2017-11-04T10:43:58.189Z,68.0
2017-11-04T10:44:59.597Z,69.2
2017-11-04T10:46:01.013Z,69.2
2017-11-04T10:47:02.449Z,69.4
2017-11-04T10:48:03.852Z,69.5
2017-11-04T10:49:05.259Z,70.1
2017-11-04T10:50:06.660Z,71.2
2017-11-04T10:51:08.075Z,71.3
2017-11-04T10:52:09.470Z,71.8
2017-11-04T10:53:10.876Z,71.7
2017-11-04T10:54:12.276Z,72.0
2017-11-04T10:55:13.680Z,72.8
2017-11-04T10:56:15.085Z,72.5
2017-11-04T10:57:16.489Z,73.0
2017-11-04T10:58:17.892Z,73.1
2017-11-04T10:59:19.296Z,73.1
2017-11-04T11:00:20.700Z,73.5
2017-11-04T11:01:22.104Z,73.6
2017-11-04T11:02:23.508Z,74.1
2017-11-04T11:03:24.909Z,74.1
2017-11-04T11:04:26.313Z,73.8
2017-11-04T11:05:27.715Z,74.2
2017-11-04T11:06:29.121Z,74.7
2017-11-04T11:07:30.529Z,75.1
2017-11-04T11:08:32.031Z,75.3
2017-11-04T11:09:33.433Z,75.5
2017-11-04T11:10:34.835Z,75.3
2017-11-04T11:11:36.239Z,75.0
2017-11-04T11:12:37.639Z,75.2
2017-11-04T11:13:39.046Z,75.3
2017-11-04T11:14:40.454Z,75.6
2017-11-04T11:15:41.865Z,75.5
2017-11-04T11:16:43.331Z,76.1
2017-11-04T11:17:44.735Z,76.3
2017-11-04T11:18:46.136Z,76.3
2017-11-04T11:19:47.542Z,76.3
2017-11-04T11:20:49.016Z,76.7
2017-11-04T11:21:50.419Z,76.6
2017-11-04T11:22:51.822Z,76.8
2017-11-04T11:23:53.226Z,76.2
2017-11-04T11:24:54.629Z,76.5
2017-11-04T11:25:56.036Z,76.3
2017-11-04T11:26:57.439Z,75.4
2017-11-04T11:27:58.843Z,76.1
2017-11-04T11:29:00.245Z,75.4
2017-11-04T11:30:01.661Z,75.7
2017-11-04T11:31:03.054Z,75.4
2017-11-04T11:32:04.459Z,75.6
2017-11-04T11:33:05.862Z,75.9
2017-11-04T11:34:07.266Z,76.0
2017-11-04T11:35:08.667Z,76.6
2017-11-04T11:36:10.072Z,76.2
2017-11-04T11:37:11.477Z,76.5
2017-11-04T11:38:12.894Z,77.1
2017-11-04T11:39:14.334Z,77.5
2017-11-04T11:40:15.712Z,77.5
2017-11-04T11:41:17.112Z,77.5
2017-11-04T11:42:18.525Z,77.6
2017-11-04T11:43:19.921Z,78.2
2017-11-04T11:44:21.322Z,77.4
2017-11-04T11:45:22.723Z,76.9
2017-11-04T11:46:24.216Z,77.1
2017-11-04T11:47:25.621Z,76.6
2017-11-04T11:48:27.022Z,74.7
2017-11-04T11:49:28.426Z,71.8
2017-11-04T11:50:29.831Z,68.2
2017-11-04T11:51:31.232Z,63.3
2017-11-04T11:52:32.636Z,58.7
2017-11-04T11:53:34.041Z,55.6
2017-11-04T11:54:35.444Z,53.0
2017-11-04T11:55:36.846Z,51.8
2017-11-04T11:56:38.253Z,49.9
2017-11-04T11:57:39.665Z,49.2
2017-11-04T11:58:41.059Z,51.0
2017-11-04T11:59:42.466Z,50.6
2017-11-04T12:00:43.869Z,50.9
2017-11-04T12:01:45.272Z,52.7
2017-11-04T12:02:46.675Z,54.2
2017-11-04T12:03:48.087Z,55.3
2017-11-04T12:04:49.493Z,57.0
2017-11-04T12:05:50.897Z,58.6
2017-11-04T12:06:52.343Z,59.0
2017-11-04T12:07:53.748Z,59.9
2017-11-04T12:08:55.150Z,59.8
2017-11-04T12:09:56.554Z,60.4
2017-11-04T12:10:57.957Z,61.1
2017-11-04T12:11:59.362Z,60.8
2017-11-04T12:13:00.763Z,61.3
2017-11-04T12:14:02.167Z,62.8
2017-11-04T12:15:03.575Z,63.5
2017-11-04T12:16:04.983Z,62.9
2017-11-04T12:17:06.389Z,64.4
2017-11-04T12:18:07.799Z,63.8
2017-11-04T12:19:09.204Z,63.7
2017-11-04T12:20:10.609Z,64.8
2017-11-04T12:21:12.009Z,65.0
2017-11-04T12:22:13.414Z,64.7
2017-11-04T12:23:14.823Z,65.1
2017-11-04T12:24:16.228Z,65.3
2017-11-04T12:25:17.635Z,65.4
2017-11-04T12:26:19.162Z,64.9
2017-11-04T12:27:20.567Z,65.3
2017-11-04T12:28:21.972Z,65.4
2017-11-04T12:29:23.374Z,65.2
2017-11-04T12:30:24.779Z,65.0
2017-11-04T12:31:26.181Z,65.3
2017-11-04T12:32:27.588Z,65.8
2017-11-04T12:33:29.001Z,66.1
2017-11-04T12:34:30.403Z,66.6
2017-11-04T12:35:31.806Z,66.8
2017-11-04T12:36:33.210Z,66.7
2017-11-04T12:37:34.616Z,66.4
2017-11-04T12:38:36.020Z,67.0
2017-11-04T12:39:37.424Z,66.7
2017-11-04T12:40:38.785Z,67.0
2017-11-04T12:41:40.186Z,66.7
2017-11-04T12:42:41.590Z,66.4
2017-11-04T12:43:42.995Z,66.5
2017-11-04T12:44:44.408Z,67.6
2017-11-04T12:45:45.816Z,67.3
2017-11-04T12:46:47.221Z,67.3
2017-11-04T12:47:48.631Z,67.3
2017-11-04T12:48:50.032Z,67.3
2017-11-04T12:49:51.438Z,67.8
2017-11-04T12:50:52.841Z,67.6
2017-11-04T12:51:54.248Z,68.0
2017-11-04T12:52:55.654Z,68.1
2017-11-04T12:53:57.060Z,67.8
2017-11-04T12:54:58.470Z,68.1
2017-11-04T12:55:59.920Z,68.0
2017-11-04T12:57:01.328Z,68.1
2017-11-04T12:58:02.732Z,68.1
2017-11-04T12:59:04.153Z,68.4
2017-11-04T13:00:05.560Z,67.8
2017-11-04T13:01:06.965Z,68.2
2017-11-04T13:02:08.374Z,68.1
2017-11-04T13:03:09.776Z,68.3
2017-11-04T13:04:11.182Z,68.4
2017-11-04T13:05:12.583Z,67.8
2017-11-04T13:06:13.996Z,68.1
2017-11-04T13:07:15.402Z,68.1
2017-11-04T13:08:16.814Z,68.6
2017-11-04T13:09:18.213Z,68.1
2017-11-04T13:10:19.618Z,68.3
2017-11-04T13:11:21.021Z,68.1
2017-11-04T13:12:22.572Z,68.3
2017-11-04T13:13:24.025Z,68.2
2017-11-04T13:14:25.431Z,67.6
2017-11-04T13:15:26.853Z,67.3
2017-11-04T13:16:28.265Z,67.1
2017-11-04T13:17:29.667Z,67.4
2017-11-04T13:18:31.080Z,68.2
2017-11-04T13:19:32.472Z,67.3
2017-11-04T13:20:33.885Z,67.7
2017-11-04T13:21:35.296Z,66.9
2017-11-04T13:22:36.697Z,67.7
2017-11-04T13:23:38.101Z,67.8
2017-11-04T13:24:39.500Z,67.2
2017-11-04T13:25:40.904Z,68.0
2017-11-04T13:26:42.308Z,68.0
2017-11-04T13:27:43.710Z,67.0
2017-11-04T13:28:45.115Z,67.7
2017-11-04T13:29:46.523Z,67.6
2017-11-04T13:30:47.929Z,66.6
2017-11-04T13:31:49.425Z,66.6
2017-11-04T13:32:50.835Z,67.0
2017-11-04T13:33:52.240Z,67.3
2017-11-04T13:34:53.647Z,67.4
2017-11-04T13:35:55.052Z,68.1
2017-11-04T13:36:56.459Z,68.0